Time;durP1;ratioP1;P1;durP2;ratioP2;P2;SDS_P1;SDS_P2;PMS_P1;PMS_P2;Temp;Humidity;BMP_temperature;BMP_pressure;BME280_temperature;BME280_humidity;BME280_pressure;Samples;Min_cycle;Max_cycle;Signal;HPM_P1;HPM_P2
2023/01/02 00:01:02;;;;;;;11.88;6.50;;;10.70;99.90;;;;;;5069403;28;20204;-64
2023/01/02 00:03:28;;;;;;;12.18;6.50;;;;;;;;;;5069494;28;20044;-64
2023/01/02 00:05:54;;;;;;;11.30;6.07;;;;;;;;;;5071175;28;20582;-64
2023/01/02 00:08:20;;;;;;;8.90;6.07;;;;;;;;;;5068987;28;20135;-63
2023/01/02 00:10:47;;;;;;;9.55;6.35;;;;;;;;;;5071646;28;20140;-65
2023/01/02 00:13:13;;;;;;;8.77;6.32;;;;;;;;;;5054647;28;20044;-65
2023/01/02 00:15:39;;;;;;;6.88;5.32;;;;;;;;;;5071130;28;20044;-64
2023/01/02 00:18:05;;;;;;;10.25;5.85;;;;;;;;;;5071020;28;20047;-64
2023/01/02 00:20:31;;;;;;;10.85;6.10;;;;;;;;;;5070385;28;20048;-64
2023/01/02 00:22:57;;;;;;;8.40;6.20;;;;;;;;;;5071493;28;20118;-64
2023/01/02 00:25:23;;;;;;;9.05;6.25;;;;;;;;;;5070656;28;20154;-64
2023/01/02 00:27:49;;;;;;;14.63;6.90;;;;;;;;;;5071076;28;20075;-64
2023/01/02 00:30:15;;;;;;;10.63;7.40;;;;;;;;;;5071411;28;20114;-64
2023/01/02 00:32:41;;;;;;;9.98;6.88;;;;;;;;;;5083442;28;20522;-64
2023/01/02 00:35:07;;;;;;;11.27;6.95;;;12.40;99.90;;;;;;5072516;28;20052;-64
2023/01/02 00:37:33;;;;;;;11.57;7.93;;;;;;;;;;5070059;28;20040;-64
2023/01/02 00:39:59;;;;;;;10.57;7.90;;;;;;;;;;5057653;28;20051;-65
2023/01/02 00:42:25;;;;;;;13.35;7.65;;;;;;;;;;5054312;28;20056;-64
2023/01/02 00:44:51;;;;;;;14.52;8.18;;;;;;;;;;5072174;28;20048;-63
2023/01/02 00:47:17;;;;;;;11.25;8.00;;;10.90;99.90;;;;;;5070735;28;20044;-64
2023/01/02 00:49:43;;;;;;;13.77;8.07;;;;;;;;;;5069833;28;20047;-63
2023/01/02 00:52:09;;;;;;;13.68;7.85;;;;;;;;;;5071672;28;20100;-64
2023/01/02 00:54:35;;;;;;;13.90;8.93;;;;;;;;;;5069994;28;20044;-63
2023/01/02 00:57:01;;;;;;;12.32;8.50;;;;;;;;;;5069315;28;20040;-65
2023/01/02 00:59:27;;;;;;;13.57;8.35;;;;;;;;;;5071796;28;20041;-64
2023/01/02 01:01:53;;;;;;;19.60;8.45;;;;;;;;;;5068909;28;20045;-64
2023/01/02 01:04:19;;;;;;;14.32;9.20;;;;;;;;;;5070168;28;20040;-64
2023/01/02 01:06:45;;;;;;;15.60;9.50;;;;;;;;;;5071500;28;20594;-64
2023/01/02 01:09:12;;;;;;;16.70;9.32;;;;;;;;;;5069714;28;20825;-63
2023/01/02 01:11:38;;;;;;;15.43;10.13;;;;;;;;;;5069942;28;20048;-64
2023/01/02 01:14:04;;;;;;;13.55;9.27;;;;;;;;;;5070437;28;20540;-64
2023/01/02 01:16:30;;;;;;;16.73;9.63;;;;;;;;;;5069403;28;20048;-64
2023/01/02 01:18:56;;;;;;;15.63;9.50;;;;;;;;;;5053031;28;20225;-63
2023/01/02 01:21:23;;;;;;;15.60;9.45;;;;;;;;;;5068760;28;20127;-64
2023/01/02 01:23:49;;;;;;;18.33;11.27;;;;;;;;;;5070443;28;20566;-64
2023/01/02 01:26:15;;;;;;;13.90;9.10;;;;;;;;;;5069342;28;20048;-64
2023/01/02 01:28:41;;;;;;;13.43;9.48;;;;;;;;;;5071218;28;20049;-65
2023/01/02 01:31:12;;;;;;;15.05;10.30;;;;;;;;;;5072601;28;20215;-63
2023/01/02 01:33:38;;;;;;;14.18;9.13;;;;;;;;;;5090391;28;20043;-64
2023/01/02 01:36:06;;;;;;;17.75;10.55;;;;;;;;;;5072354;28;20043;-64
2023/01/02 01:38:32;;;;;;;17.63;10.23;;;;;;;;;;5070917;28;20050;-64
2023/01/02 01:40:58;;;;;;;16.73;9.88;;;;;;;;;;5071784;28;20396;-64
2023/01/02 01:43:44;;;;;;;17.13;10.27;;;;;;;;;;5089744;28;20039;-64
2023/01/02 01:46:31;;;;;;;19.92;10.10;;;;;;;;;;5054831;28;20035;-64
2023/01/02 01:49:04;;;;;;;18.17;10.93;;;11.20;99.90;;;;;;5075456;28;20055;-65
2023/01/02 01:51:32;;;;;;;14.75;10.68;;;;;;;;;;5090237;28;20390;-64
2023/01/02 01:54:12;;;;;;;15.93;11.02;;;;;;;;;;5070950;28;20489;-64
2023/01/02 01:56:40;;;;;;;18.42;11.30;;;;;;;;;;5070602;28;20044;-64
2023/01/02 01:59:07;;;;;;;19.00;11.43;;;;;;;;;;5070525;28;20044;-64
2023/01/02 02:01:33;;;;;;;18.17;11.75;;;;;;;;;;5089776;28;20131;-64
2023/01/02 02:03:59;;;;;;;16.73;11.07;;;;;;;;;;5055375;28;20050;-64
2023/01/02 02:06:25;;;;;;;19.08;10.65;;;;;;;;;;5071231;28;20048;-64
2023/01/02 02:08:57;;;;;;;20.85;11.65;;;;;;;;;;5071885;28;20406;-64
2023/01/02 02:11:23;;;;;;;22.17;11.65;;;;;;;;;;5090150;28;20043;-64
2023/01/02 02:13:49;;;;;;;17.67;11.55;;;;;;;;;;5071016;28;20131;-63
2023/01/02 02:16:15;;;;;;;15.95;10.90;;;;;;;;;;5089871;28;20120;-63
2023/01/02 02:18:44;;;;;;;19.60;11.63;;;;;;;;;;5071375;28;20447;-64
2023/01/02 02:21:39;;;;;;;16.75;10.85;;;11.30;99.90;;;;;;5054707;28;20509;-64
2023/01/02 02:24:23;;;;;;;24.57;11.77;;;;;;;;;;5071795;28;20505;-64
2023/01/02 02:27:08;;;;;;;16.50;11.15;;;;;;;;;;5089102;28;20044;-63
2023/01/02 02:29:52;;;;;;;21.15;11.98;;;;;;;;;;5089834;28;20040;-65
2023/01/02 02:32:18;;;;;;;16.37;11.00;;;;;;;;;;5089301;28;20067;-64
2023/01/02 02:34:59;;;;;;;19.58;11.43;;;;;;;;;;5090254;28;20079;-64
2023/01/02 02:37:42;;;;;;;17.65;10.60;;;11.30;99.90;;;;;;5089581;28;20036;-64
2023/01/02 02:40:14;;;;;;;17.38;10.52;;;11.60;99.90;;;;;;5042335;28;20040;-64
2023/01/02 02:42:52;;;;;;;16.20;10.98;;;;;;;;;;5070773;28;20040;-65
2023/01/02 02:45:27;;;;;;;22.17;12.35;;;;;;;;;;5088995;28;20043;-64
2023/01/02 02:47:53;;;;;;;24.40;12.65;;;;;;;;;;5088736;28;20047;-64
2023/01/02 02:50:41;;;;;;;25.55;13.90;;;11.40;99.90;;;;;;5089150;28;20040;-65
2023/01/02 02:53:25;;;;;;;22.52;12.60;;;11.50;99.90;;;;;;5070784;28;20093;-64
2023/01/02 02:55:53;;;;;;;21.25;11.18;;;;;;;;;;5070314;28;20062;-64
2023/01/02 02:58:22;;;;;;;24.48;11.25;;;11.50;99.90;;;;;;5071455;28;20110;-64
2023/01/02 03:00:48;;;;;;;23.95;11.88;;;;;;;;;;5070147;28;20118;-64
2023/01/02 03:03:22;;;;;;;20.88;11.27;;;11.40;99.90;;;;;;5070588;28;20181;-64
2023/01/02 03:06:03;;;;;;;23.23;12.50;;;;;;;;;;5070030;28;20040;-64
2023/01/02 03:08:36;;;;;;;22.00;11.75;;;;;;;;;;5068695;28;20040;-64
2023/01/02 03:11:02;;;;;;;21.00;12.05;;;;;;;;;;5070414;28;20044;-63
2023/01/02 03:13:28;;;;;;;22.52;11.05;;;;;;;;;;5087620;28;20397;-64
2023/01/02 03:16:00;;;;;;;26.83;11.60;;;;;;;;;;5092960;28;20040;-64
2023/01/02 03:18:34;;;;;;;18.67;11.35;;;;;;;;;;5054906;28;20486;-64
2023/01/02 03:21:09;;;;;;;23.35;11.88;;;;;;;;;;5070687;28;20529;-64
2023/01/02 03:23:38;;;;;;;21.95;11.57;;;;;;;;;;5090965;28;20096;-64
2023/01/02 03:26:04;;;;;;;20.40;10.70;;;;;;;;;;5089269;28;20040;-63
2023/01/02 03:28:31;;;;;;;21.23;11.13;;;;;;;;;;5095493;28;20476;-65
2023/01/02 03:31:00;;;;;;;17.85;11.18;;;;;;;;;;5074028;28;20032;-64
2023/01/02 03:33:39;;;;;;;25.70;11.18;;;;;;;;;;5088765;28;20048;-63
2023/01/02 03:36:10;;;;;;;21.52;12.35;;;;;;;;;;5070972;28;20131;-64
2023/01/02 03:38:40;;;;;;;19.70;11.13;;;11.60;99.90;;;;;;5080474;28;20044;-64
2023/01/02 03:41:10;;;;;;;19.88;11.25;;;;;;;;;;5094292;28;20042;-64
2023/01/02 03:43:38;;;;;;;19.90;11.95;;;;;;;;;;5092188;28;20050;-63
2023/01/02 03:46:11;;;;;;;20.98;12.65;;;11.50;99.90;;;;;;5078363;28;20050;-65
2023/01/02 03:48:47;;;;;;;24.25;11.90;;;11.60;99.90;;;;;;5106003;28;20404;-64
2023/01/02 03:51:13;;;;;;;23.70;12.35;;;;;;;;;;5081261;28;20073;-65
2023/01/02 03:53:40;;;;;;;22.13;12.63;;;;;;;;;;5101306;28;20443;-65
2023/01/02 03:56:09;;;;;;;19.55;11.60;;;;;;;;;;5078089;28;20032;-64
2023/01/02 03:58:40;;;;;;;21.10;11.45;;;11.40;99.90;;;;;;5085506;28;20161;-67
2023/01/02 04:01:11;;;;;;;21.73;10.80;;;11.60;99.90;;;;;;5107749;28;20154;-65
2023/01/02 04:04:00;;;;;;;20.15;10.60;;;;;;;;;;5093768;28;20036;-64
2023/01/02 04:06:34;;;;;;;18.95;9.93;;;;;;;;;;5080241;28;20062;-63
2023/01/02 04:09:09;;;;;;;19.35;11.13;;;11.60;99.90;;;;;;5086837;28;20122;-64
2023/01/02 04:11:37;;;;;;;19.50;10.70;;;;;;;;;;5075060;28;20044;-64
2023/01/02 04:14:07;;;;;;;28.00;12.52;;;;;;;;;;5068928;28;20051;-64
2023/01/02 04:16:34;;;;;;;20.70;10.60;;;11.50;99.90;;;;;;5077112;28;20073;-64
2023/01/02 04:19:10;;;;;;;20.73;11.48;;;;;;;;;;5074761;28;20123;-65
2023/01/02 04:21:39;;;;;;;21.90;11.48;;;11.70;99.90;;;;;;5074390;28;20118;-64
2023/01/02 04:24:14;;;;;;;25.33;12.18;;;;;;;;;;5092760;28;20036;-64
2023/01/02 04:26:58;;;;;;;21.38;11.57;;;;;;;;;;5076264;28;20121;-64
2023/01/02 04:29:24;;;;;;;19.08;11.90;;;11.60;99.90;;;;;;5082703;28;20040;-64
2023/01/02 04:32:00;;;;;;;17.35;11.00;;;;;;;;;;5090211;28;20056;-64
2023/01/02 04:34:30;;;;;;;19.63;11.50;;;11.70;99.90;;;;;;5101563;28;20048;-64
2023/01/02 04:36:56;;;;;;;20.25;11.13;;;;;;;;;;5075448;28;20382;-64
2023/01/02 04:39:23;;;;;;;19.63;11.70;;;11.80;99.90;;;;;;5072685;28;20059;-65
2023/01/02 04:41:49;;;;;;;18.77;11.05;;;;;;;;;;5090050;28;20035;-64
2023/01/02 04:44:15;;;;;;;20.35;10.50;;;;;;;;;;5072629;28;20043;-64
2023/01/02 04:46:41;;;;;;;21.02;10.80;;;;;;;;;;5090722;28;20379;-64
2023/01/02 04:49:08;;;;;;;19.92;11.27;;;;;;;;;;5109528;28;20046;-64
2023/01/02 04:51:34;;;;;;;21.20;11.57;;;;;;;;;;5082116;28;20036;-64
2023/01/02 04:54:00;;;;;;;24.45;11.65;;;;;;;;;;5072058;28;20040;-64
2023/01/02 04:56:26;;;;;;;22.15;11.00;;;;;;;;;;5090654;28;20046;-64
2023/01/02 04:58:52;;;;;;;22.83;10.93;;;;;;;;;;5090307;28;20044;-64
2023/01/02 05:01:19;;;;;;;16.60;11.40;;;11.70;99.90;;;;;;5073199;28;20040;-64
2023/01/02 05:03:46;;;;;;;16.15;10.48;;;;;;;;;;5073565;28;20366;-64
2023/01/02 05:06:13;;;;;;;23.40;11.35;;;11.80;99.90;;;;;;5091291;28;20052;-64
2023/01/02 05:08:39;;;;;;;18.80;10.70;;;11.90;99.90;;;;;;5092001;28;20075;-64
2023/01/02 05:11:10;;;;;;;24.42;12.32;;;11.80;99.90;;;;;;5084430;28;20119;-64
2023/01/02 05:13:36;;;;;;;21.02;11.38;;;;;;;;;;5047331;28;20040;-64
2023/01/02 05:16:02;;;;;;;18.70;10.82;;;;;;;;;;5091305;28;20079;-64
2023/01/02 05:18:30;;;;;;;22.25;12.18;;;11.80;99.90;;;;;;5073220;28;20493;-65
2023/01/02 05:23:47;;;;;;;22.83;11.70;;;11.90;99.90;;;;;;5073797;28;20095;-65
2023/01/02 05:23:59;;;;;;;21.90;11.68;;;11.90;99.90;;;;;;5110880;28;20058;-65
2023/01/02 05:26:25;;;;;;;18.00;12.05;;;;;;;;;;5056188;28;20048;-65
2023/01/02 05:28:52;;;;;;;20.98;11.32;;;;;;;;;;5070396;28;20055;-66
2023/01/02 05:31:18;;;;;;;24.60;12.77;;;;;;;;;;5084322;28;20574;-66
2023/01/02 05:33:44;;;;;;;20.92;12.10;;;;;;;;;;5088531;28;20052;-64
2023/01/02 05:36:09;;;;;;;19.73;11.75;;;12.00;99.90;;;;;;5071199;28;20503;-64
2023/01/02 05:38:36;;;;;;;20.67;11.40;;;11.90;99.90;;;;;;5072525;28;20050;-64
2023/01/02 05:41:06;;;;;;;19.02;10.73;;;11.90;99.90;;;;;;5073540;28;20044;-65
2023/01/02 05:43:32;;;;;;;18.23;11.30;;;;;;;;;;5061212;28;20043;-66
2023/01/02 05:45:58;;;;;;;15.85;11.07;;;;;;;;;;5101502;28;20039;-64
2023/01/02 05:48:24;;;;;;;16.60;11.18;;;;;;;;;;5071108;28;20097;-64
2023/01/02 05:50:51;;;;;;;22.55;11.98;;;;;;;;;;5069755;28;20047;-64
2023/01/02 05:53:17;;;;;;;19.27;11.60;;;;;;;;;;5072935;28;20126;-64
2023/01/02 05:55:43;;;;;;;20.75;12.50;;;;;;;;;;5086357;28;20055;-64
2023/01/02 05:58:09;;;;;;;20.25;12.88;;;;;;;;;;5081346;28;20035;-64
2023/01/02 06:00:34;;;;;;;20.25;12.65;;;11.70;99.90;;;;;;5076622;28;20501;-64
2023/01/02 06:03:00;;;;;;;19.30;12.95;;;;;;;;;;5091015;28;20115;-64
2023/01/02 06:05:26;;;;;;;19.50;12.60;;;;;;;;;;5056334;28;20109;-65
2023/01/02 06:07:52;;;;;;;21.67;12.93;;;;;;;;;;5097889;28;20778;-65
2023/01/02 06:10:18;;;;;;;19.83;12.82;;;;;;;;;;5079216;28;20063;-67
2023/01/02 06:12:44;;;;;;;24.48;13.02;;;11.70;99.90;;;;;;5091048;28;20068;-65
2023/01/02 06:15:10;;;;;;;18.63;12.52;;;11.70;99.90;;;;;;5071785;28;20051;-66
2023/01/02 06:17:35;;;;;;;21.30;10.63;;;11.70;99.90;;;;;;5093248;28;20561;-65
2023/01/02 06:20:01;;;;;;;16.35;8.95;;;;;;;;;;5093659;28;20044;-65
2023/01/02 06:22:27;;;;;;;11.75;8.70;;;;;;;;;;5056707;28;20642;-65
2023/01/02 06:24:53;;;;;;;11.18;8.00;;;;;;;;;;5101753;28;20079;-65
2023/01/02 06:27:19;;;;;;;9.68;7.10;;;;;;;;;;5100409;28;20076;-65
2023/01/02 06:29:45;;;;;;;13.23;9.43;;;;;;;;;;5088388;28;20050;-65
2023/01/02 06:32:11;;;;;;;11.27;8.73;;;;;;;;;;5090499;28;20056;-66
2023/01/02 06:34:37;;;;;;;12.02;8.98;;;;;;;;;;5085387;28;20043;-65
2023/01/02 06:37:03;;;;;;;10.95;8.63;;;;;;;;;;5076339;28;20579;-63
2023/01/02 06:39:29;;;;;;;12.75;9.43;;;;;;;;;;5067088;28;20047;-64
2023/01/02 06:41:55;;;;;;;10.23;7.10;;;;;;;;;;5102733;28;20028;-64
2023/01/02 06:44:21;;;;;;;5.55;3.70;;;11.60;99.90;;;;;;5089145;28;20451;-63
2023/01/02 06:46:46;;;;;;;3.03;2.35;;;11.60;99.90;;;;;;5096982;28;20040;-63
2023/01/02 06:49:12;;;;;;;2.85;1.95;;;;;;;;;;5092527;28;20043;-63
2023/01/02 06:51:38;;;;;;;3.05;2.65;;;;;;;;;;5066437;28;20075;-64
2023/01/02 06:54:04;;;;;;;3.47;3.17;;;;;;;;;;5106097;28;20118;-65
2023/01/02 06:56:30;;;;;;;5.78;4.28;;;;;;;;;;5074737;28;20074;-63
2023/01/02 06:58:58;;;;;;;5.28;4.22;;;;;;;;;;5085822;28;20470;-62
2023/01/02 07:01:24;;;;;;;7.45;5.18;;;;;;;;;;5068111;28;20823;-66
2023/01/02 07:03:50;;;;;;;6.13;4.85;;;;;;;;;;5086780;28;20653;-65
2023/01/02 07:06:18;;;;;;;6.45;5.57;;;10.90;99.90;;;;;;5078275;28;20039;-64
2023/01/02 07:08:44;;;;;;;5.70;5.13;;;;;;;;;;5088513;28;20051;-64
2023/01/02 07:11:18;;;;;;;7.07;5.68;;;;;;;;;;5073696;28;20043;-65
2023/01/02 07:13:45;;;;;;;6.97;5.80;;;;;;;;;;5071962;28;20131;-65
2023/01/02 07:16:13;;;;;;;8.68;5.78;;;11.00;99.90;;;;;;5076388;28;20081;-64
2023/01/02 07:18:39;;;;;;;7.63;6.05;;;;;;;;;;5094252;28;20040;-63
2023/01/02 07:21:06;;;;;;;7.97;5.72;;;;;;;;;;5071006;28;20039;-65
2023/01/02 07:23:32;;;;;;;14.02;6.53;;;;;;;;;;5090674;28;20529;-64
2023/01/02 07:25:59;;;;;;;8.55;5.53;;;;;;;;;;5076464;28;20044;-64
2023/01/02 07:28:25;;;;;;;8.30;4.03;;;;;;;;;;5086929;28;20040;-65
2023/01/02 07:30:55;;;;;;;5.53;3.75;;;;;;;;;;5090801;28;20485;-63
2023/01/02 07:33:21;;;;;;;7.72;3.67;;;;;;;;;;5078968;28;20052;-65
2023/01/02 07:35:46;;;;;;;5.75;3.28;;;10.40;99.90;;;;;;5068746;28;20067;-63
2023/01/02 07:38:12;;;;;;;6.68;3.40;;;10.40;99.90;;;;;;5098495;28;20040;-63
2023/01/02 07:40:38;;;;;;;5.60;2.80;;;;;;;;;;5086746;28;20044;-64
2023/01/02 07:43:04;;;;;;;5.93;2.78;;;;;;;;;;5092413;28;20046;-64
2023/01/02 07:45:32;;;;;;;5.88;2.58;;;;;;;;;;5094242;28;20421;-64
2023/01/02 07:47:58;;;;;;;4.60;2.90;;;;;;;;;;5102205;28;20036;-65
2023/01/02 07:50:24;;;;;;;4.32;2.78;;;;;;;;;;5100400;28;20035;-65
2023/01/02 07:52:50;;;;;;;4.32;1.90;;;;;;;;;;5104349;28;20047;-62
2023/01/02 07:55:16;;;;;;;5.00;2.10;;;;;;;;;;5074873;28;20425;-63
2023/01/02 07:57:42;;;;;;;2.40;1.55;;;;;;;;;;5070857;28;20052;-64
2023/01/02 08:00:08;;;;;;;2.22;1.65;;;;;;;;;;5071743;28;20035;-63
2023/01/02 08:02:34;;;;;;;4.65;1.90;;;;;;;;;;5096681;28;20101;-64
2023/01/02 08:05:00;;;;;;;4.25;1.67;;;9.70;99.90;;;;;;5092876;28;20052;-63
2023/01/02 08:07:26;;;;;;;3.58;1.58;;;;;;;;;;5087234;28;20044;-65
2023/01/02 08:09:52;;;;;;;2.85;1.73;;;;;;;;;;5089888;28;20138;-64
2023/01/02 08:12:17;;;;;;;2.97;1.90;;;;;;;;;;5069442;28;20390;-63
2023/01/02 08:14:43;;;;;;;2.10;1.70;;;;;;;;;;5083484;28;20035;-64
2023/01/02 08:17:09;;;;;;;4.32;1.90;;;;;;;;;;5102551;28;20048;-63
2023/01/02 08:19:36;;;;;;;2.70;1.65;;;;;;;;;;5101593;28;20040;-64
2023/01/02 08:22:02;;;;;;;2.40;1.52;;;9.60;99.90;;;;;;5096662;28;20051;-64
2023/01/02 08:24:27;;;;;;;3.00;1.45;;;9.50;99.90;;;;;;5095200;28;20040;-63
2023/01/02 08:26:53;;;;;;;4.03;1.90;;;9.50;99.90;;;;;;5089983;28;20119;-62
2023/01/02 08:29:19;;;;;;;3.25;1.50;;;;;;;;;;5078197;28;20044;-62
2023/01/02 08:31:45;;;;;;;2.15;1.58;;;;;;;;;;5078301;28;20052;-64
2023/01/02 08:34:13;;;;;;;4.15;1.70;;;;;;;;;;5083709;28;20347;-62
2023/01/02 08:36:39;;;;;;;2.92;1.90;;;;;;;;;;5076561;28;20062;-64
2023/01/02 08:39:05;;;;;;;3.25;1.90;;;;;;;;;;5087165;28;20036;-66
2023/01/02 08:41:39;;;;;;;2.60;2.10;;;9.40;99.90;;;;;;5081779;28;20036;-66
2023/01/02 08:44:05;;;;;;;5.60;2.13;;;;;;;;;;5083137;28;20039;-65
2023/01/02 08:46:31;;;;;;;4.10;2.30;;;;;;;;;;5072444;28;20083;-65
2023/01/02 08:48:57;;;;;;;3.00;2.28;;;;;;;;;;5066421;28;20048;-65
2023/01/02 08:51:24;;;;;;;4.75;2.63;;;9.60;99.90;;;;;;5086856;28;20043;-63
2023/01/02 08:53:50;;;;;;;3.40;2.70;;;;;;;;;;5085410;28;20052;-64
2023/01/02 08:56:25;;;;;;;4.38;2.90;;;;;;;;;;5071452;28;20036;-63
2023/01/02 08:58:51;;;;;;;;;;;;;;;;;;5077307;28;20045;-65
2023/01/02 09:01:17;;;;;;;4.13;2.80;;;;;;;;;;5080603;28;19927;-66
2023/01/02 09:03:43;;;;;;;4.32;2.53;;;;;;;;;;5074153;28;20527;-67
2023/01/02 09:06:09;;;;;;;3.50;2.50;;;9.40;99.90;;;;;;5069642;28;20060;-63
2023/01/02 09:08:34;;;;;;;2.95;2.05;;;9.30;99.90;;;;;;5068334;28;20123;-64
2023/01/02 09:11:16;;;;;;;6.03;2.70;;;9.50;99.90;;;;;;5071676;28;20068;-64
2023/01/02 09:13:42;;;;;;;3.90;2.25;;;;;;;;;;5071681;28;20496;-63
2023/01/02 09:16:08;;;;;;;8.60;2.63;;;;;;;;;;5078399;28;20123;-64
2023/01/02 09:18:35;;;;;;;5.93;2.75;;;9.40;99.90;;;;;;5080985;28;20068;-63
2023/01/02 09:21:01;;;;;;;5.68;2.83;;;;;;;;;;5067856;28;20502;-64
2023/01/02 09:23:27;;;;;;;5.07;2.95;;;;;;;;;;5067757;28;20144;-63
2023/01/02 09:25:56;;;;;;;4.70;2.15;;;;;;;;;;5056922;28;20072;-64
2023/01/02 09:28:22;;;;;;;4.75;2.40;;;;;;;;;;5066718;28;20106;-63
2023/01/02 09:30:48;;;;;;;4.03;2.25;;;;;;;;;;5066196;28;20040;-66
2023/01/02 09:33:14;;;;;;;7.05;2.60;;;;;;;;;;5066402;28;20056;-65
2023/01/02 09:35:40;;;;;;;3.97;2.25;;;;;;;;;;5066777;28;20406;-63
2023/01/02 09:38:06;;;;;;;5.22;2.40;;;;;;;;;;5066396;28;20039;-63
2023/01/02 09:40:33;;;;;;;2.85;2.58;;;;;;;;;;5067788;28;20057;-63
2023/01/02 09:42:59;;;;;;;4.00;2.33;;;;;;;;;;5066299;28;20045;-65
2023/01/02 09:45:25;;;;;;;6.05;2.45;;;;;;;;;;5066038;28;20048;-65
2023/01/02 09:47:53;;;;;;;3.78;2.33;;;;;;;;;;5075850;28;20043;-66
2023/01/02 09:50:24;;;;;;;3.15;1.98;;;;;;;;;;5066135;28;20044;-66
2023/01/02 09:52:54;;;;;;;4.97;2.60;;;;;;;;;;5085341;28;20094;-66
2023/01/02 09:55:54;;;;;;;4.78;2.45;;;9.30;99.90;;;;;;5074066;28;20087;-65
2023/01/02 09:58:38;;;;;;;4.07;2.58;;;;;;;;;;5058377;28;20071;-66
2023/01/02 10:01:08;;;;;;;4.13;2.33;;;9.40;99.90;;;;;;5082305;28;20067;-69
2023/01/02 10:03:48;;;;;;;3.15;2.20;;;;;;;;;;5074261;28;20049;-65
2023/01/02 10:06:19;;;;;;;4.07;2.70;;;9.30;99.90;;;;;;5071196;28;20123;-65
2023/01/02 10:09:03;;;;;;;4.43;2.38;;;;;;;;;;5073680;28;20032;-66
2023/01/02 10:11:40;;;;;;;5.60;2.15;;;;;;;;;;5060217;28;20048;-66
2023/01/02 10:14:26;;;;;;;4.72;2.70;;;;;;;;;;5066116;28;20434;-65
2023/01/02 10:16:54;;;;;;;3.60;3.08;;;;;;;;;;5062038;28;20134;-67
2023/01/02 10:19:27;;;;;;;3.63;2.15;;;;;;;;;;5065117;28;20551;-67
2023/01/02 10:21:57;;;;;;;3.72;2.42;;;;;;;;;;5069783;28;20048;-65
2023/01/02 10:24:29;;;;;;;3.60;1.90;;;;;;;;;;5065512;28;20068;-66
2023/01/02 10:26:56;;;;;;;4.70;1.77;;;;;;;;;;5067272;28;20051;-66
2023/01/02 10:29:25;;;;;;;3.00;2.10;;;;;;;;;;5069820;28;20113;-66
2023/01/02 10:31:55;;;;;;;4.95;2.13;;;;;;;;;;5068136;28;20112;-67
2023/01/02 10:34:25;;;;;;;3.15;2.13;;;;;;;;;;5074317;28;20052;-68
2023/01/02 10:36:51;;;;;;;6.55;2.42;;;;;;;;;;5090991;28;20118;-66
2023/01/02 10:39:21;;;;;;;4.68;2.50;;;;;;;;;;5105775;28;20441;-66
2023/01/02 10:41:49;;;;;;;3.70;1.95;;;;;;;;;;5081055;28;20434;-66
2023/01/02 10:44:35;;;;;;;4.53;2.50;;;9.40;99.90;;;;;;5084366;28;20055;-66
2023/01/02 10:47:24;;;;;;;5.60;2.38;;;;;;;;;;5066894;28;20052;-67
2023/01/02 10:49:51;;;;;;;5.70;2.42;;;9.50;99.90;;;;;;5049072;28;20418;-66
2023/01/02 10:52:17;;;;;;;8.73;2.70;;;;;;;;;;5060339;28;20400;-65
2023/01/02 10:54:49;;;;;;;7.15;2.47;;;;;;;;;;5068808;28;20047;-66
2023/01/02 10:57:21;;;;;;;4.53;1.85;;;;;;;;;;5067652;28;20573;-69
2023/01/02 10:59:54;;;;;;;5.07;2.35;;;9.50;99.90;;;;;;5072616;28;20047;-67
2023/01/02 11:02:30;;;;;;;6.88;2.67;;;;;;;;;;5068864;28;20474;-68
2023/01/02 11:05:00;;;;;;;7.18;2.55;;;;;;;;;;5067249;28;20520;-67
2023/01/02 11:07:28;;;;;;;7.57;2.70;;;;;;;;;;5087434;28;20062;-66
2023/01/02 11:09:55;;;;;;;6.22;2.50;;;;;;;;;;5071628;28;20139;-66
2023/01/02 11:12:21;;;;;;;7.35;2.75;;;;;;;;;;5088240;28;20119;-66
2023/01/02 11:14:47;;;;;;;7.97;2.30;;;;;;;;;;5086853;28;20127;-68
2023/01/02 11:17:20;;;;;;;10.30;2.95;;;;;;;;;;5072793;28;20046;-66
2023/01/02 11:19:48;;;;;;;4.95;2.53;;;;;;;;;;5085744;28;20042;-68
2023/01/02 11:22:16;;;;;;;5.53;2.42;;;;;;;;;;5072676;28;20043;-69
2023/01/02 11:24:59;;;;;;;5.85;2.40;;;9.70;99.90;;;;;;5074049;28;20043;-68
2023/01/02 11:27:29;;;;;;;8.30;3.15;;;;;;;;;;5094212;28;20117;-67
2023/01/02 11:29:55;;;;;;;8.57;2.17;;;;;;;;;;5084549;28;20564;-68
2023/01/02 11:32:37;;;;;;;6.15;1.88;;;;;;;;;;5067629;28;20697;-68
2023/01/02 11:35:03;;;;;;;5.30;1.77;;;;;;;;;;5069440;28;20123;-69
2023/01/02 11:37:30;;;;;;;6.32;2.38;;;;;;;;;;5094711;28;20051;-68
2023/01/02 11:39:58;;;;;;;7.00;1.80;;;10.40;99.90;;;;;;5070640;28;20044;-69
2023/01/02 11:45:15;;;;;;;5.00;2.17;;;;;;;;;;5061930;28;20043;-73
2023/01/02 11:47:55;;;;;;;6.25;2.10;;;;;;;;;;5090240;28;20036;-69
2023/01/02 11:50:21;;;;;;;7.97;1.67;;;;;;;;;;5093435;28;20043;-68
2023/01/02 11:52:52;;;;;;;5.78;1.65;;;;;;;;;;5070237;28;20390;-68
2023/01/02 11:55:18;;;;;;;6.32;1.70;;;;;;;;;;5070727;28;20048;-67
2023/01/02 11:57:59;;;;;;;8.93;1.67;;;;;;;;;;5078727;28;20442;-68
2023/01/02 12:00:28;;;;;;;7.30;1.30;;;;;;;;;;5067872;28;20494;-68
2023/01/02 12:02:59;;;;;;;7.25;2.45;;;;;;;;;;5090059;28;20126;-70
2023/01/02 12:05:32;;;;;;;7.57;1.70;;;;;;;;;;5082023;28;20530;-67
2023/01/02 12:08:05;;;;;;;7.05;2.38;;;;;;;;;;5080276;28;20054;-68
2023/01/02 12:10:50;;;;;;;7.40;1.80;;;10.00;99.90;;;;;;5108726;28;20054;-67
2023/01/02 12:13:35;;;;;;;14.95;2.45;;;9.80;99.90;;;;;;5088316;28;20039;-69
2023/01/02 12:16:21;;;;;;;13.63;2.22;;;;;;;;;;5086156;28;20056;-68
2023/01/02 12:19:17;;;;;;;12.15;2.15;;;;;;;;;;5108653;28;20327;-69
2023/01/02 12:21:47;;;;;;;10.27;2.00;;;;;;;;;;5071554;28;20063;-68
2023/01/02 12:24:33;;;;;;;6.28;1.58;;;;;;;;;;5082951;28;20109;-68
2023/01/02 12:27:06;;;;;;;14.50;2.35;;;;;;;;;;5086734;28;20100;-70
2023/01/02 12:29:32;;;;;;;9.60;1.90;;;;;;;;;;5085372;28;20501;-67
2023/01/02 12:32:17;;;;;;;4.80;1.42;;;;;;;;;;5106389;28;20086;-67
2023/01/02 12:34:43;;;;;;;8.98;1.90;;;;;;;;;;5106764;28;20043;-68
2023/01/02 12:37:17;;;;;;;7.25;2.05;;;;;;;;;;5085813;28;20050;-66
2023/01/02 12:39:57;;;;;;;5.43;1.93;;;;;;;;;;5086142;28;20386;-67
2023/01/02 12:42:44;;;;;;;11.90;2.05;;;;;;;;;;5105507;28;20116;-67
2023/01/02 12:45:16;;;;;;;9.10;1.80;;;;;;;;;;5087844;28;20123;-68
2023/01/02 12:48:18;;;;;;;8.88;1.55;;;10.00;99.90;;;;;;5097219;28;20055;-67
2023/01/02 12:51:18;;;;;;;11.40;2.42;;;9.90;99.90;;;;;;5084492;28;20050;-67
2023/01/02 12:53:55;;;;;;;7.88;1.92;;;;;;;;;;5065334;28;20056;-68
2023/01/02 12:56:34;;;;;;;9.10;2.13;;;10.00;99.90;;;;;;5085065;28;20126;-67
2023/01/02 12:59:26;;;;;;;12.63;2.67;;;;;;;;;;5103227;28;20571;-68
2023/01/02 13:02:07;;;;;;;10.00;2.13;;;9.80;99.90;;;;;;5062507;28;20390;-68
2023/01/02 13:04:37;;;;;;;17.48;2.40;;;;;;;;;;5088629;28;20043;-68
2023/01/02 13:07:28;;;;;;;14.00;2.50;;;9.80;99.90;;;;;;5089135;28;20035;-68
2023/01/02 13:09:56;;;;;;;14.68;3.05;;;;;;;;;;5082644;28;20100;-68
2023/01/02 13:12:24;;;;;;;8.35;2.70;;;;;;;;;;5104701;28;20075;-68
2023/01/02 13:14:52;;;;;;;11.30;2.63;;;;;;;;;;5070237;28;20093;-68
2023/01/02 13:17:34;;;;;;;8.88;2.67;;;;;;;;;;5070386;28;20047;-68
2023/01/02 13:20:19;;;;;;;14.80;3.15;;;;;;;;;;5085485;28;20115;-67
2023/01/02 13:22:57;;;;;;;12.90;2.45;;;;;;;;;;5088518;28;20123;-68
2023/01/02 13:25:23;;;;;;;8.25;2.42;;;;;;;;;;5088516;28;20500;-68
2023/01/02 13:27:49;;;;;;;11.13;2.83;;;;;;;;;;5088354;28;20040;-68
2023/01/02 13:30:33;;;;;;;14.52;3.05;;;;;;;;;;5088278;28;20036;-67
2023/01/02 13:33:01;;;;;;;19.77;3.50;;;;;;;;;;5088387;28;20078;-68
2023/01/02 13:35:27;;;;;;;14.15;2.75;;;;;;;;;;5080028;28;20060;-67
2023/01/02 13:37:53;;;;;;;13.95;2.67;;;;;;;;;;5065756;28;20351;-68
2023/01/02 13:40:27;;;;;;;16.33;2.83;;;;;;;;;;5088221;28;20382;-67
2023/01/02 13:43:05;;;;;;;15.35;2.45;;;;;;;;;;5069826;28;20086;-67
2023/01/02 13:45:45;;;;;;;10.18;3.05;;;;;;;;;;5087701;28;20048;-67
2023/01/02 13:48:17;;;;;;;15.05;3.10;;;;;;;;;;5103992;28;20047;-68
2023/01/02 13:50:44;;;;;;;9.65;2.90;;;;;;;;;;5104211;28;20050;-68
2023/01/02 13:53:09;;;;;;;16.08;2.92;;;;;;;;;;5087820;28;20040;-68
2023/01/02 13:55:55;;;;;;;14.77;3.15;;;;;;;;;;5101841;28;20069;-68
2023/01/02 13:58:42;;;;;;;11.13;2.83;;;;;;;;;;5079860;28;20417;-67
2023/01/02 14:01:20;;;;;;;13.23;2.35;;;;;;;;;;5083650;28;20122;-68
2023/01/02 14:03:46;;;;;;;11.27;2.85;;;;;;;;;;5087636;28;20078;-68
2023/01/02 14:06:32;;;;;;;10.00;2.38;;;;;;;;;;5069092;28;20122;-67
2023/01/02 14:08:58;;;;;;;;;;;;;;;;;;5088064;28;20040;-68
2023/01/02 14:11:27;;;;;;;16.08;2.08;;;;;;;;;;5093545;28;20442;-68
2023/01/02 14:13:54;;;;;;;10.75;2.60;;;;;;;;;;5107941;28;20043;-67
2023/01/02 14:16:20;;;;;;;13.73;3.22;;;;;;;;;;5089568;28;20061;-67
2023/01/02 14:19:01;;;;;;;10.38;2.47;;;;;;;;;;5106384;28;20490;-68
2023/01/02 14:21:37;;;;;;;11.68;2.40;;;;;;;;;;5092813;28;20064;-67
2023/01/02 14:24:04;;;;;;;10.57;1.80;;;;;;;;;;5089666;28;20406;-67
2023/01/02 14:26:34;;;;;;;8.82;2.05;;;9.80;99.90;;;;;;5093249;28;20044;-68
2023/01/02 14:29:06;;;;;;;7.88;2.28;;;;;;;;;;5096627;28;20384;-68